Tropical Cyclones
[Index]
Main Index Home Page Stock Weather Photos Extreme Storms Discussion Storm News and Storm Chasing Reports Tropical Cyclones / Hurricanes / Typhoons Weather Data and Links Wild Fires / Bushfires Weather Observation Techniques Weather Picture Catalogue Tornado Pictures and Reports Stock Video Footage and DVDs for sale
Season 2014-2015 Tropical Cyclone LAM Track Map
Season 2014-2015 Summaries (Operational Data): [AU] [SIO] [SPAC] [SH]
<<- Previous TC | 2014-2015 Season | Next TC ->>

click for intensity scale information  Lat/long Grid: Show Hide

 Date Labels: Show Hide

Operational Tropical Cyclone Data : JTWC Advisories

Name: LAM
Number: 1512

11 Feb 2015 12:00 UTC to 22 Feb 2015 18:00 UTC

    date/time    lat    long     hPa   cat  kts
2015-02-11 12   12.2   148.4    1010         15          
2015-02-11 18   12.2   148.0    1010         15          
2015-02-12 00   12.2   147.5    1010         15          
2015-02-12 06   12.2   147.1    1010         15          
2015-02-12 12   12.2   146.6    1005         20          
2015-02-12 18   12.1   146.0    1004         20          
2015-02-13 00   12.3   146.2    1003         20          
2015-02-13 06   12.3   145.9    1003         20          
2015-02-13 12   12.3   145.6    1003         20          
2015-02-13 18   12.3   145.4    1004         20          
2015-02-14 00   12.3   145.2    1004         20          
2015-02-14 06   12.4   144.5    1004         20          
2015-02-14 12   12.4   143.9    1005         20          
2015-02-14 18   12.4   143.3    1007         20          
2015-02-15 00   12.4   142.4    1007         20          
2015-02-15 06   12.4   141.6    1002         20          
2015-02-15 12   12.4   140.9    1002         20          
2015-02-15 18   12.0   140.3    1004         25          
2015-02-16 00   11.3   140.3    1000         30          
2015-02-16 06   11.3   139.9    1000         30          
2015-02-16 12   11.4   139.8    1000         30          
2015-02-16 18   11.4   139.5     996    1    35          
2015-02-17 00   11.4   139.1     989    1    45          
2015-02-17 06   11.4   138.7     982    2    55          
2015-02-17 12   11.4   138.3     978    2    60          
2015-02-17 18   11.3   137.8     978    2    60          
2015-02-18 00   11.2   137.2     974    3    65          
2015-02-18 06   11.0   136.7     974    3    65          
2015-02-18 12   11.0   136.4     970    3    70          
2015-02-18 18   11.2   136.1     967    3    75          
2015-02-19 00   11.4   135.9     963    3    80          
2015-02-19 06   11.7   135.7     956    4    90          
2015-02-19 12   12.0   135.4     948    4   100          
2015-02-19 18   12.6   134.9     974    3    65          
2015-02-20 00   13.3   134.5     985    2    50          
2015-02-20 06   14.4   133.8     993    1    40          
2015-02-20 12   14.7   132.7    1000         30          
2015-02-20 18   15.2   132.1     998         20          
2015-02-21 00   15.9   131.4    1007         20          
2015-02-21 06   16.6   130.6    1007         20          
2015-02-21 12   17.5   129.8    1007         20          
2015-02-21 18   18.1   129.2    1007         20          
2015-02-22 00   18.7   128.6    1007         20          
2015-02-22 06   19.6   127.7    1007         20          
2015-02-22 12   20.6   126.8    1007         20          
2015-02-22 18   21.5   126.0    1007         20          
Winds are 10-min average.

Tropical cyclone tracks developed by Michael Bath using operational warnings and advisories and Google Maps.


[Australian Severe Weather index] [Copyright Notice] [Email Contacts] [Search This Site] [Privacy Policy]
Document: tropical_cyclone_lam.htm Updated: 2 May 2017